sensor_id;sensor_type;location;lat;lon;timestamp;P1;durP1;ratioP1;P2;durP2;ratioP2
7813;SDS011;3952;48.364;16.022;2022-11-20T00:00:26;24.47;;;15.00;;
7813;SDS011;3952;48.364;16.022;2022-11-20T00:02:54;30.07;;;15.53;;
7813;SDS011;3952;48.364;16.022;2022-11-20T00:05:21;36.37;;;16.47;;
7813;SDS011;3952;48.364;16.022;2022-11-20T00:07:48;32.70;;;17.03;;
7813;SDS011;3952;48.364;16.022;2022-11-20T00:10:16;26.13;;;15.67;;
7813;SDS011;3952;48.364;16.022;2022-11-20T00:12:43;26.10;;;14.80;;
7813;SDS011;3952;48.364;16.022;2022-11-20T00:15:12;20.10;;;13.73;;
7813;SDS011;3952;48.364;16.022;2022-11-20T00:17:39;19.17;;;13.83;;
7813;SDS011;3952;48.364;16.022;2022-11-20T00:20:07;17.57;;;12.53;;
7813;SDS011;3952;48.364;16.022;2022-11-20T00:22:35;20.77;;;12.93;;
7813;SDS011;3952;48.364;16.022;2022-11-20T00:25:03;19.77;;;13.77;;
7813;SDS011;3952;48.364;16.022;2022-11-20T00:27:31;17.73;;;13.40;;
7813;SDS011;3952;48.364;16.022;2022-11-20T00:29:58;21.00;;;13.77;;
7813;SDS011;3952;48.364;16.022;2022-11-20T00:32:27;18.97;;;13.00;;
7813;SDS011;3952;48.364;16.022;2022-11-20T00:34:54;19.40;;;13.47;;
7813;SDS011;3952;48.364;16.022;2022-11-20T00:37:21;20.47;;;13.90;;
7813;SDS011;3952;48.364;16.022;2022-11-20T00:39:48;18.73;;;12.73;;
7813;SDS011;3952;48.364;16.022;2022-11-20T00:42:16;21.00;;;13.07;;
7813;SDS011;3952;48.364;16.022;2022-11-20T00:44:43;21.43;;;13.63;;
7813;SDS011;3952;48.364;16.022;2022-11-20T00:47:10;20.27;;;14.07;;
7813;SDS011;3952;48.364;16.022;2022-11-20T00:49:39;20.60;;;13.80;;
7813;SDS011;3952;48.364;16.022;2022-11-20T00:52:06;21.57;;;14.00;;
7813;SDS011;3952;48.364;16.022;2022-11-20T00:54:34;24.03;;;14.20;;
7813;SDS011;3952;48.364;16.022;2022-11-20T00:57:01;21.93;;;13.97;;
7813;SDS011;3952;48.364;16.022;2022-11-20T00:59:28;20.87;;;14.20;;
7813;SDS011;3952;48.364;16.022;2022-11-20T01:01:55;20.63;;;14.30;;
7813;SDS011;3952;48.364;16.022;2022-11-20T01:04:22;23.00;;;14.30;;
7813;SDS011;3952;48.364;16.022;2022-11-20T01:06:51;20.33;;;13.73;;
7813;SDS011;3952;48.364;16.022;2022-11-20T01:09:18;20.57;;;13.73;;
7813;SDS011;3952;48.364;16.022;2022-11-20T01:11:46;23.03;;;14.13;;
7813;SDS011;3952;48.364;16.022;2022-11-20T01:14:13;21.20;;;14.43;;
7813;SDS011;3952;48.364;16.022;2022-11-20T01:16:43;21.57;;;14.40;;
7813;SDS011;3952;48.364;16.022;2022-11-20T01:19:12;19.90;;;13.73;;
7813;SDS011;3952;48.364;16.022;2022-11-20T01:21:41;22.33;;;14.97;;
7813;SDS011;3952;48.364;16.022;2022-11-20T01:24:12;22.93;;;14.73;;
7813;SDS011;3952;48.364;16.022;2022-11-20T01:26:41;28.90;;;16.10;;
7813;SDS011;3952;48.364;16.022;2022-11-20T01:29:10;24.20;;;14.87;;
7813;SDS011;3952;48.364;16.022;2022-11-20T01:31:41;19.87;;;14.03;;
7813;SDS011;3952;48.364;16.022;2022-11-20T01:34:09;21.10;;;13.87;;
7813;SDS011;3952;48.364;16.022;2022-11-20T01:36:38;22.40;;;14.37;;
7813;SDS011;3952;48.364;16.022;2022-11-20T01:39:07;21.90;;;13.27;;
7813;SDS011;3952;48.364;16.022;2022-11-20T01:41:39;21.50;;;12.97;;
7813;SDS011;3952;48.364;16.022;2022-11-20T01:47:16;17.87;;;12.50;;
7813;SDS011;3952;48.364;16.022;2022-11-20T01:49:48;18.03;;;12.70;;
7813;SDS011;3952;48.364;16.022;2022-11-20T01:52:21;21.60;;;13.10;;
7813;SDS011;3952;48.364;16.022;2022-11-20T01:54:54;18.37;;;12.47;;
7813;SDS011;3952;48.364;16.022;2022-11-20T01:57:24;18.07;;;13.07;;
7813;SDS011;3952;48.364;16.022;2022-11-20T01:59:56;20.40;;;14.17;;
7813;SDS011;3952;48.364;16.022;2022-11-20T02:02:28;19.40;;;13.23;;
7813;SDS011;3952;48.364;16.022;2022-11-20T02:04:56;20.27;;;13.83;;
7813;SDS011;3952;48.364;16.022;2022-11-20T02:07:30;23.83;;;13.80;;
7813;SDS011;3952;48.364;16.022;2022-11-20T02:10:00;20.67;;;13.57;;
7813;SDS011;3952;48.364;16.022;2022-11-20T02:12:28;18.57;;;12.73;;
7813;SDS011;3952;48.364;16.022;2022-11-20T02:15:12;20.00;;;13.57;;
7813;SDS011;3952;48.364;16.022;2022-11-20T02:17:39;19.63;;;13.60;;
7813;SDS011;3952;48.364;16.022;2022-11-20T02:20:07;20.73;;;13.40;;
7813;SDS011;3952;48.364;16.022;2022-11-20T02:22:36;22.57;;;14.07;;
7813;SDS011;3952;48.364;16.022;2022-11-20T02:25:10;23.53;;;14.37;;
7813;SDS011;3952;48.364;16.022;2022-11-20T02:27:38;25.60;;;15.73;;
7813;SDS011;3952;48.364;16.022;2022-11-20T02:30:06;23.80;;;14.53;;
7813;SDS011;3952;48.364;16.022;2022-11-20T02:32:37;22.83;;;14.50;;
7813;SDS011;3952;48.364;16.022;2022-11-20T02:35:08;19.47;;;13.30;;
7813;SDS011;3952;48.364;16.022;2022-11-20T02:37:57;22.63;;;14.67;;
7813;SDS011;3952;48.364;16.022;2022-11-20T02:40:28;21.13;;;14.60;;
7813;SDS011;3952;48.364;16.022;2022-11-20T02:42:56;23.07;;;15.57;;
7813;SDS011;3952;48.364;16.022;2022-11-20T02:45:24;20.90;;;13.90;;
7813;SDS011;3952;48.364;16.022;2022-11-20T02:47:51;27.87;;;16.00;;
7813;SDS011;3952;48.364;16.022;2022-11-20T02:50:19;22.77;;;14.63;;
7813;SDS011;3952;48.364;16.022;2022-11-20T02:52:47;21.63;;;13.90;;
7813;SDS011;3952;48.364;16.022;2022-11-20T02:55:14;24.00;;;14.63;;
7813;SDS011;3952;48.364;16.022;2022-11-20T02:57:43;24.00;;;14.60;;
7813;SDS011;3952;48.364;16.022;2022-11-20T03:00:10;22.00;;;14.40;;
7813;SDS011;3952;48.364;16.022;2022-11-20T03:02:39;21.80;;;14.43;;
7813;SDS011;3952;48.364;16.022;2022-11-20T03:05:06;38.53;;;20.23;;
7813;SDS011;3952;48.364;16.022;2022-11-20T03:07:34;62.57;;;28.70;;
7813;SDS011;3952;48.364;16.022;2022-11-20T03:10:01;62.33;;;27.83;;
7813;SDS011;3952;48.364;16.022;2022-11-20T03:12:28;32.43;;;18.93;;
7813;SDS011;3952;48.364;16.022;2022-11-20T03:14:57;26.10;;;16.27;;
7813;SDS011;3952;48.364;16.022;2022-11-20T03:17:24;24.33;;;15.40;;
7813;SDS011;3952;48.364;16.022;2022-11-20T03:19:52;22.97;;;14.37;;
7813;SDS011;3952;48.364;16.022;2022-11-20T03:22:19;28.40;;;16.50;;
7813;SDS011;3952;48.364;16.022;2022-11-20T03:24:46;24.80;;;16.20;;
7813;SDS011;3952;48.364;16.022;2022-11-20T03:27:14;23.40;;;15.20;;
7813;SDS011;3952;48.364;16.022;2022-11-20T03:29:41;22.33;;;15.47;;
7813;SDS011;3952;48.364;16.022;2022-11-20T03:32:10;26.20;;;16.87;;
7813;SDS011;3952;48.364;16.022;2022-11-20T03:34:38;26.03;;;15.30;;
7813;SDS011;3952;48.364;16.022;2022-11-20T03:37:05;23.50;;;15.03;;
7813;SDS011;3952;48.364;16.022;2022-11-20T03:39:32;22.53;;;14.10;;
7813;SDS011;3952;48.364;16.022;2022-11-20T03:41:59;21.07;;;14.03;;
7813;SDS011;3952;48.364;16.022;2022-11-20T03:44:27;21.10;;;13.87;;
7813;SDS011;3952;48.364;16.022;2022-11-20T03:46:54;21.67;;;14.93;;
7813;SDS011;3952;48.364;16.022;2022-11-20T03:49:23;20.30;;;13.90;;
7813;SDS011;3952;48.364;16.022;2022-11-20T03:51:50;22.60;;;14.60;;
7813;SDS011;3952;48.364;16.022;2022-11-20T03:54:17;22.73;;;15.13;;
7813;SDS011;3952;48.364;16.022;2022-11-20T03:56:45;21.17;;;14.60;;
7813;SDS011;3952;48.364;16.022;2022-11-20T03:59:12;23.67;;;14.57;;
7813;SDS011;3952;48.364;16.022;2022-11-20T04:01:39;22.43;;;14.77;;
7813;SDS011;3952;48.364;16.022;2022-11-20T04:04:07;22.30;;;14.93;;
7813;SDS011;3952;48.364;16.022;2022-11-20T04:06:36;22.63;;;14.53;;
7813;SDS011;3952;48.364;16.022;2022-11-20T04:09:04;23.40;;;14.27;;
7813;SDS011;3952;48.364;16.022;2022-11-20T04:11:33;19.27;;;13.33;;
7813;SDS011;3952;48.364;16.022;2022-11-20T04:14:02;20.03;;;13.90;;
7813;SDS011;3952;48.364;16.022;2022-11-20T04:16:31;22.07;;;14.47;;
7813;SDS011;3952;48.364;16.022;2022-11-20T04:19:01;21.20;;;14.03;;
7813;SDS011;3952;48.364;16.022;2022-11-20T04:21:30;21.67;;;14.57;;
7813;SDS011;3952;48.364;16.022;2022-11-20T04:23:58;22.67;;;14.33;;
7813;SDS011;3952;48.364;16.022;2022-11-20T04:26:26;21.23;;;14.30;;
7813;SDS011;3952;48.364;16.022;2022-11-20T04:28:55;22.17;;;14.27;;
7813;SDS011;3952;48.364;16.022;2022-11-20T04:31:24;25.43;;;15.03;;
7813;SDS011;3952;48.364;16.022;2022-11-20T04:33:52;22.20;;;14.53;;
7813;SDS011;3952;48.364;16.022;2022-11-20T04:36:21;25.00;;;14.57;;
7813;SDS011;3952;48.364;16.022;2022-11-20T04:38:50;22.97;;;15.17;;
7813;SDS011;3952;48.364;16.022;2022-11-20T04:41:20;23.23;;;14.90;;
7813;SDS011;3952;48.364;16.022;2022-11-20T04:43:50;21.77;;;14.93;;
7813;SDS011;3952;48.364;16.022;2022-11-20T04:46:18;24.10;;;14.73;;
7813;SDS011;3952;48.364;16.022;2022-11-20T04:48:47;18.10;;;13.73;;
7813;SDS011;3952;48.364;16.022;2022-11-20T04:51:14;23.23;;;15.10;;
7813;SDS011;3952;48.364;16.022;2022-11-20T04:53:42;22.93;;;14.17;;
7813;SDS011;3952;48.364;16.022;2022-11-20T04:56:09;23.23;;;14.60;;
7813;SDS011;3952;48.364;16.022;2022-11-20T04:58:39;25.80;;;15.53;;
7813;SDS011;3952;48.364;16.022;2022-11-20T05:01:09;27.33;;;15.73;;
7813;SDS011;3952;48.364;16.022;2022-11-20T05:03:38;26.00;;;15.30;;
7813;SDS011;3952;48.364;16.022;2022-11-20T05:06:05;27.57;;;16.40;;
7813;SDS011;3952;48.364;16.022;2022-11-20T05:08:33;22.30;;;14.40;;
7813;SDS011;3952;48.364;16.022;2022-11-20T05:11:01;25.40;;;15.53;;
7813;SDS011;3952;48.364;16.022;2022-11-20T05:13:29;24.37;;;15.63;;
7813;SDS011;3952;48.364;16.022;2022-11-20T05:16:02;25.43;;;15.93;;
7813;SDS011;3952;48.364;16.022;2022-11-20T05:18:30;21.93;;;15.17;;
7813;SDS011;3952;48.364;16.022;2022-11-20T05:20:57;23.07;;;15.67;;
7813;SDS011;3952;48.364;16.022;2022-11-20T05:23:25;27.37;;;16.20;;
7813;SDS011;3952;48.364;16.022;2022-11-20T05:25:53;23.33;;;14.80;;
7813;SDS011;3952;48.364;16.022;2022-11-20T05:28:21;26.33;;;16.23;;
7813;SDS011;3952;48.364;16.022;2022-11-20T05:30:49;22.90;;;14.87;;
7813;SDS011;3952;48.364;16.022;2022-11-20T05:33:18;27.93;;;16.47;;
7813;SDS011;3952;48.364;16.022;2022-11-20T05:35:47;29.93;;;17.03;;
7813;SDS011;3952;48.364;16.022;2022-11-20T05:38:14;25.57;;;15.97;;
7813;SDS011;3952;48.364;16.022;2022-11-20T05:40:42;28.77;;;16.17;;
7813;SDS011;3952;48.364;16.022;2022-11-20T05:43:09;28.53;;;16.60;;
7813;SDS011;3952;48.364;16.022;2022-11-20T05:45:36;23.53;;;15.33;;
7813;SDS011;3952;48.364;16.022;2022-11-20T05:48:04;25.43;;;15.67;;
7813;SDS011;3952;48.364;16.022;2022-11-20T05:50:33;27.23;;;16.40;;
7813;SDS011;3952;48.364;16.022;2022-11-20T05:53:00;26.03;;;16.60;;
7813;SDS011;3952;48.364;16.022;2022-11-20T05:55:27;24.53;;;15.70;;
7813;SDS011;3952;48.364;16.022;2022-11-20T05:57:55;27.97;;;16.37;;
7813;SDS011;3952;48.364;16.022;2022-11-20T06:00:22;23.20;;;15.13;;
7813;SDS011;3952;48.364;16.022;2022-11-20T06:02:49;25.07;;;15.77;;
7813;SDS011;3952;48.364;16.022;2022-11-20T06:05:17;26.57;;;15.80;;
7813;SDS011;3952;48.364;16.022;2022-11-20T06:07:45;25.27;;;15.47;;
7813;SDS011;3952;48.364;16.022;2022-11-20T06:10:13;32.20;;;17.47;;
7813;SDS011;3952;48.364;16.022;2022-11-20T06:12:40;25.27;;;16.13;;
7813;SDS011;3952;48.364;16.022;2022-11-20T06:15:08;25.90;;;16.23;;
7813;SDS011;3952;48.364;16.022;2022-11-20T06:17:36;25.33;;;15.70;;
7813;SDS011;3952;48.364;16.022;2022-11-20T06:20:03;26.53;;;16.67;;
7813;SDS011;3952;48.364;16.022;2022-11-20T06:22:32;27.20;;;16.50;;
7813;SDS011;3952;48.364;16.022;2022-11-20T06:25:00;30.37;;;16.73;;
7813;SDS011;3952;48.364;16.022;2022-11-20T06:27:28;26.57;;;15.87;;
7813;SDS011;3952;48.364;16.022;2022-11-20T06:29:55;23.93;;;16.13;;
7813;SDS011;3952;48.364;16.022;2022-11-20T06:32:22;25.97;;;15.73;;
7813;SDS011;3952;48.364;16.022;2022-11-20T06:34:49;27.77;;;15.93;;
7813;SDS011;3952;48.364;16.022;2022-11-20T06:37:16;26.13;;;16.73;;
7813;SDS011;3952;48.364;16.022;2022-11-20T06:39:44;27.80;;;16.67;;
7813;SDS011;3952;48.364;16.022;2022-11-20T06:42:12;25.33;;;16.33;;
7813;SDS011;3952;48.364;16.022;2022-11-20T06:44:39;24.47;;;15.70;;
7813;SDS011;3952;48.364;16.022;2022-11-20T06:47:07;28.57;;;17.07;;
7813;SDS011;3952;48.364;16.022;2022-11-20T06:49:34;27.50;;;16.57;;
7813;SDS011;3952;48.364;16.022;2022-11-20T06:52:03;25.77;;;16.53;;
7813;SDS011;3952;48.364;16.022;2022-11-20T06:54:31;27.00;;;16.43;;
7813;SDS011;3952;48.364;16.022;2022-11-20T06:56:58;26.57;;;16.80;;
7813;SDS011;3952;48.364;16.022;2022-11-20T06:59:27;30.20;;;16.63;;
7813;SDS011;3952;48.364;16.022;2022-11-20T07:01:54;29.73;;;18.37;;
7813;SDS011;3952;48.364;16.022;2022-11-20T07:04:21;30.50;;;17.03;;
7813;SDS011;3952;48.364;16.022;2022-11-20T07:06:49;27.80;;;17.53;;
7813;SDS011;3952;48.364;16.022;2022-11-20T07:09:16;27.67;;;16.67;;
7813;SDS011;3952;48.364;16.022;2022-11-20T07:11:43;25.83;;;16.83;;
7813;SDS011;3952;48.364;16.022;2022-11-20T07:14:10;24.80;;;16.37;;
7813;SDS011;3952;48.364;16.022;2022-11-20T07:16:39;26.13;;;15.37;;
7813;SDS011;3952;48.364;16.022;2022-11-20T07:19:06;27.10;;;16.47;;
7813;SDS011;3952;48.364;16.022;2022-11-20T07:21:34;26.00;;;15.50;;
7813;SDS011;3952;48.364;16.022;2022-11-20T07:24:02;29.77;;;17.10;;
7813;SDS011;3952;48.364;16.022;2022-11-20T07:26:29;30.70;;;17.20;;
7813;SDS011;3952;48.364;16.022;2022-11-20T07:28:56;26.80;;;16.97;;
7813;SDS011;3952;48.364;16.022;2022-11-20T07:31:24;25.73;;;16.53;;
7813;SDS011;3952;48.364;16.022;2022-11-20T07:33:52;27.67;;;16.67;;
7813;SDS011;3952;48.364;16.022;2022-11-20T07:36:20;27.33;;;16.43;;
7813;SDS011;3952;48.364;16.022;2022-11-20T07:38:47;24.30;;;16.27;;
7813;SDS011;3952;48.364;16.022;2022-11-20T07:41:14;26.23;;;15.87;;
7813;SDS011;3952;48.364;16.022;2022-11-20T07:43:41;26.00;;;15.93;;
7813;SDS011;3952;48.364;16.022;2022-11-20T07:46:09;27.57;;;16.23;;
7813;SDS011;3952;48.364;16.022;2022-11-20T07:48:36;28.07;;;16.77;;
7813;SDS011;3952;48.364;16.022;2022-11-20T07:51:05;23.57;;;14.87;;
7813;SDS011;3952;48.364;16.022;2022-11-20T07:53:32;24.50;;;15.77;;
7813;SDS011;3952;48.364;16.022;2022-11-20T07:55:59;27.47;;;16.73;;
7813;SDS011;3952;48.364;16.022;2022-11-20T07:58:28;30.20;;;17.60;;
7813;SDS011;3952;48.364;16.022;2022-11-20T08:00:58;30.73;;;17.53;;
7813;SDS011;3952;48.364;16.022;2022-11-20T08:03:28;30.77;;;16.77;;
7813;SDS011;3952;48.364;16.022;2022-11-20T08:05:58;32.10;;;19.03;;
7813;SDS011;3952;48.364;16.022;2022-11-20T08:08:27;31.60;;;17.53;;
7813;SDS011;3952;48.364;16.022;2022-11-20T08:10:56;34.07;;;19.70;;
7813;SDS011;3952;48.364;16.022;2022-11-20T08:13:44;35.77;;;20.33;;
7813;SDS011;3952;48.364;16.022;2022-11-20T08:16:29;37.73;;;20.57;;
7813;SDS011;3952;48.364;16.022;2022-11-20T08:18:56;35.40;;;20.23;;
7813;SDS011;3952;48.364;16.022;2022-11-20T08:21:23;41.60;;;22.10;;
7813;SDS011;3952;48.364;16.022;2022-11-20T08:23:52;43.13;;;21.67;;
7813;SDS011;3952;48.364;16.022;2022-11-20T08:26:20;39.57;;;21.07;;
7813;SDS011;3952;48.364;16.022;2022-11-20T08:28:48;37.70;;;21.10;;
7813;SDS011;3952;48.364;16.022;2022-11-20T08:31:15;38.67;;;20.70;;
7813;SDS011;3952;48.364;16.022;2022-11-20T08:33:43;42.27;;;21.17;;
7813;SDS011;3952;48.364;16.022;2022-11-20T08:36:10;35.90;;;20.77;;
7813;SDS011;3952;48.364;16.022;2022-11-20T08:38:37;38.07;;;21.70;;
7813;SDS011;3952;48.364;16.022;2022-11-20T08:41:06;38.40;;;21.57;;
7813;SDS011;3952;48.364;16.022;2022-11-20T08:43:55;35.07;;;20.13;;
7813;SDS011;3952;48.364;16.022;2022-11-20T08:46:23;41.27;;;22.07;;
7813;SDS011;3952;48.364;16.022;2022-11-20T08:48:51;40.37;;;22.90;;
7813;SDS011;3952;48.364;16.022;2022-11-20T08:51:19;29.40;;;18.43;;
7813;SDS011;3952;48.364;16.022;2022-11-20T08:53:47;32.83;;;18.00;;
7813;SDS011;3952;48.364;16.022;2022-11-20T08:56:16;28.73;;;17.67;;
7813;SDS011;3952;48.364;16.022;2022-11-20T08:58:43;33.37;;;18.67;;
7813;SDS011;3952;48.364;16.022;2022-11-20T09:01:11;33.13;;;18.87;;
7813;SDS011;3952;48.364;16.022;2022-11-20T09:03:38;33.97;;;19.97;;
7813;SDS011;3952;48.364;16.022;2022-11-20T09:06:06;51.90;;;23.77;;
7813;SDS011;3952;48.364;16.022;2022-11-20T09:08:34;41.37;;;21.07;;
7813;SDS011;3952;48.364;16.022;2022-11-20T09:11:02;45.40;;;21.70;;
7813;SDS011;3952;48.364;16.022;2022-11-20T09:13:32;39.60;;;21.97;;
7813;SDS011;3952;48.364;16.022;2022-11-20T09:16:00;36.50;;;19.97;;
7813;SDS011;3952;48.364;16.022;2022-11-20T09:18:29;33.37;;;18.53;;
7813;SDS011;3952;48.364;16.022;2022-11-20T09:20:57;35.00;;;19.80;;
7813;SDS011;3952;48.364;16.022;2022-11-20T09:23:25;37.83;;;19.10;;
7813;SDS011;3952;48.364;16.022;2022-11-20T09:25:53;35.33;;;19.47;;
7813;SDS011;3952;48.364;16.022;2022-11-20T09:28:24;35.63;;;18.80;;
7813;SDS011;3952;48.364;16.022;2022-11-20T09:30:53;31.60;;;18.50;;
7813;SDS011;3952;48.364;16.022;2022-11-20T09:33:20;31.53;;;19.03;;
7813;SDS011;3952;48.364;16.022;2022-11-20T09:35:48;35.77;;;19.70;;
7813;SDS011;3952;48.364;16.022;2022-11-20T09:38:15;36.07;;;21.07;;
7813;SDS011;3952;48.364;16.022;2022-11-20T09:40:44;33.77;;;19.53;;
7813;SDS011;3952;48.364;16.022;2022-11-20T09:43:16;43.60;;;23.13;;
7813;SDS011;3952;48.364;16.022;2022-11-20T09:45:52;35.17;;;20.10;;
7813;SDS011;3952;48.364;16.022;2022-11-20T09:51:28;33.80;;;18.97;;
7813;SDS011;3952;48.364;16.022;2022-11-20T09:54:07;39.60;;;20.20;;
7813;SDS011;3952;48.364;16.022;2022-11-20T09:56:42;33.37;;;18.77;;
7813;SDS011;3952;48.364;16.022;2022-11-20T09:59:15;34.63;;;20.13;;
7813;SDS011;3952;48.364;16.022;2022-11-20T10:02:01;28.90;;;17.30;;
7813;SDS011;3952;48.364;16.022;2022-11-20T10:04:42;30.77;;;19.23;;
7813;SDS011;3952;48.364;16.022;2022-11-20T10:07:13;33.63;;;19.30;;
7813;SDS011;3952;48.364;16.022;2022-11-20T10:09:52;34.13;;;20.93;;
7813;SDS011;3952;48.364;16.022;2022-11-20T10:12:23;31.87;;;19.40;;
7813;SDS011;3952;48.364;16.022;2022-11-20T10:15:01;31.67;;;19.90;;
7813;SDS011;3952;48.364;16.022;2022-11-20T10:17:46;31.00;;;19.20;;
7813;SDS011;3952;48.364;16.022;2022-11-20T10:20:28;33.77;;;19.07;;
7813;SDS011;3952;48.364;16.022;2022-11-20T10:23:17;36.33;;;19.70;;
7813;SDS011;3952;48.364;16.022;2022-11-20T10:25:55;34.07;;;19.30;;
7813;SDS011;3952;48.364;16.022;2022-11-20T10:28:32;33.07;;;18.87;;
7813;SDS011;3952;48.364;16.022;2022-11-20T10:31:11;33.10;;;19.03;;
7813;SDS011;3952;48.364;16.022;2022-11-20T10:33:58;33.77;;;19.63;;
7813;SDS011;3952;48.364;16.022;2022-11-20T10:36:28;30.70;;;18.67;;
7813;SDS011;3952;48.364;16.022;2022-11-20T10:39:04;31.83;;;18.33;;
7813;SDS011;3952;48.364;16.022;2022-11-20T10:41:38;37.57;;;22.80;;
7813;SDS011;3952;48.364;16.022;2022-11-20T10:44:15;35.53;;;20.30;;
7813;SDS011;3952;48.364;16.022;2022-11-20T10:47:11;34.67;;;19.87;;
7813;SDS011;3952;48.364;16.022;2022-11-20T10:49:42;31.93;;;18.80;;
7813;SDS011;3952;48.364;16.022;2022-11-20T10:52:14;34.67;;;19.90;;
7813;SDS011;3952;48.364;16.022;2022-11-20T10:54:49;46.10;;;26.70;;
7813;SDS011;3952;48.364;16.022;2022-11-20T10:57:26;35.70;;;20.17;;
7813;SDS011;3952;48.364;16.022;2022-11-20T11:00:03;33.60;;;19.70;;
7813;SDS011;3952;48.364;16.022;2022-11-20T11:02:33;32.60;;;19.57;;
7813;SDS011;3952;48.364;16.022;2022-11-20T11:05:10;32.53;;;19.23;;
7813;SDS011;3952;48.364;16.022;2022-11-20T11:07:44;32.60;;;19.03;;
7813;SDS011;3952;48.364;16.022;2022-11-20T11:10:15;34.33;;;20.00;;
7813;SDS011;3952;48.364;16.022;2022-11-20T11:12:44;34.23;;;19.77;;
7813;SDS011;3952;48.364;16.022;2022-11-20T11:15:14;28.77;;;18.83;;
7813;SDS011;3952;48.364;16.022;2022-11-20T11:17:52;32.07;;;18.83;;
7813;SDS011;3952;48.364;16.022;2022-11-20T11:20:21;32.77;;;19.50;;
7813;SDS011;3952;48.364;16.022;2022-11-20T11:22:50;29.97;;;18.77;;
7813;SDS011;3952;48.364;16.022;2022-11-20T11:25:22;34.10;;;19.53;;
7813;SDS011;3952;48.364;16.022;2022-11-20T11:27:53;30.83;;;19.67;;
7813;SDS011;3952;48.364;16.022;2022-11-20T11:30:22;32.10;;;19.40;;
7813;SDS011;3952;48.364;16.022;2022-11-20T11:33:01;32.47;;;18.70;;
7813;SDS011;3952;48.364;16.022;2022-11-20T11:35:32;33.73;;;19.60;;
7813;SDS011;3952;48.364;16.022;2022-11-20T11:38:04;37.53;;;20.93;;
7813;SDS011;3952;48.364;16.022;2022-11-20T11:40:34;29.83;;;19.00;;
7813;SDS011;3952;48.364;16.022;2022-11-20T11:43:04;34.63;;;20.87;;
7813;SDS011;3952;48.364;16.022;2022-11-20T11:45:54;32.87;;;19.63;;
7813;SDS011;3952;48.364;16.022;2022-11-20T11:48:21;35.07;;;20.03;;
7813;SDS011;3952;48.364;16.022;2022-11-20T11:50:50;34.27;;;20.90;;
7813;SDS011;3952;48.364;16.022;2022-11-20T11:53:19;33.37;;;20.43;;
7813;SDS011;3952;48.364;16.022;2022-11-20T11:55:49;31.97;;;20.37;;
7813;SDS011;3952;48.364;16.022;2022-11-20T11:58:33;33.10;;;20.07;;
7813;SDS011;3952;48.364;16.022;2022-11-20T12:01:10;35.20;;;20.77;;
7813;SDS011;3952;48.364;16.022;2022-11-20T12:03:52;32.87;;;21.20;;
7813;SDS011;3952;48.364;16.022;2022-11-20T12:06:27;31.77;;;19.50;;
7813;SDS011;3952;48.364;16.022;2022-11-20T12:08:57;28.30;;;18.87;;
7813;SDS011;3952;48.364;16.022;2022-11-20T12:11:30;30.80;;;19.13;;
7813;SDS011;3952;48.364;16.022;2022-11-20T12:14:04;32.47;;;19.53;;
7813;SDS011;3952;48.364;16.022;2022-11-20T12:16:39;28.07;;;18.23;;
7813;SDS011;3952;48.364;16.022;2022-11-20T12:19:08;32.30;;;19.10;;
7813;SDS011;3952;48.364;16.022;2022-11-20T12:21:42;32.40;;;19.40;;
7813;SDS011;3952;48.364;16.022;2022-11-20T12:24:31;30.27;;;18.40;;
7813;SDS011;3952;48.364;16.022;2022-11-20T12:30:28;28.97;;;17.43;;
7813;SDS011;3952;48.364;16.022;2022-11-20T12:33:04;27.63;;;18.10;;
7813;SDS011;3952;48.364;16.022;2022-11-20T12:35:44;28.50;;;19.10;;
7813;SDS011;3952;48.364;16.022;2022-11-20T12:38:36;26.90;;;18.37;;
7813;SDS011;3952;48.364;16.022;2022-11-20T12:41:29;31.70;;;18.97;;
7813;SDS011;3952;48.364;16.022;2022-11-20T12:44:57;33.47;;;19.40;;
7813;SDS011;3952;48.364;16.022;2022-11-20T12:48:08;29.47;;;18.07;;
7813;SDS011;3952;48.364;16.022;2022-11-20T12:51:05;29.63;;;18.23;;
7813;SDS011;3952;48.364;16.022;2022-11-20T12:53:49;30.03;;;18.67;;
7813;SDS011;3952;48.364;16.022;2022-11-20T12:56:27;24.63;;;17.50;;
7813;SDS011;3952;48.364;16.022;2022-11-20T12:59:07;29.13;;;18.00;;
7813;SDS011;3952;48.364;16.022;2022-11-20T13:01:51;28.93;;;18.13;;
7813;SDS011;3952;48.364;16.022;2022-11-20T13:04:32;29.73;;;19.13;;
7813;SDS011;3952;48.364;16.022;2022-11-20T13:07:10;31.63;;;19.63;;
7813;SDS011;3952;48.364;16.022;2022-11-20T13:09:42;28.33;;;19.00;;
7813;SDS011;3952;48.364;16.022;2022-11-20T13:12:13;28.40;;;19.07;;
7813;SDS011;3952;48.364;16.022;2022-11-20T13:14:45;34.23;;;19.50;;
7813;SDS011;3952;48.364;16.022;2022-11-20T13:17:20;32.63;;;19.03;;
7813;SDS011;3952;48.364;16.022;2022-11-20T13:19:52;28.13;;;18.63;;
7813;SDS011;3952;48.364;16.022;2022-11-20T13:22:24;29.43;;;19.13;;
7813;SDS011;3952;48.364;16.022;2022-11-20T13:24:54;31.67;;;19.53;;
7813;SDS011;3952;48.364;16.022;2022-11-20T13:27:22;30.83;;;19.00;;
7813;SDS011;3952;48.364;16.022;2022-11-20T13:30:00;32.77;;;19.17;;
7813;SDS011;3952;48.364;16.022;2022-11-20T13:32:47;33.40;;;20.17;;
7813;SDS011;3952;48.364;16.022;2022-11-20T13:35:23;32.57;;;20.13;;
7813;SDS011;3952;48.364;16.022;2022-11-20T13:38:03;32.63;;;19.77;;
7813;SDS011;3952;48.364;16.022;2022-11-20T13:40:35;32.53;;;19.67;;
7813;SDS011;3952;48.364;16.022;2022-11-20T13:43:07;29.37;;;19.67;;
7813;SDS011;3952;48.364;16.022;2022-11-20T13:45:53;37.03;;;22.23;;
7813;SDS011;3952;48.364;16.022;2022-11-20T13:48:22;46.20;;;25.57;;
7813;SDS011;3952;48.364;16.022;2022-11-20T13:50:55;37.20;;;22.03;;
7813;SDS011;3952;48.364;16.022;2022-11-20T13:53:34;36.87;;;22.10;;
7813;SDS011;3952;48.364;16.022;2022-11-20T13:56:23;49.33;;;26.27;;
7813;SDS011;3952;48.364;16.022;2022-11-20T13:58:59;49.33;;;25.13;;
7813;SDS011;3952;48.364;16.022;2022-11-20T14:01:33;38.33;;;21.87;;
7813;SDS011;3952;48.364;16.022;2022-11-20T14:04:05;38.70;;;22.97;;
7813;SDS011;3952;48.364;16.022;2022-11-20T14:06:39;38.27;;;21.70;;
7813;SDS011;3952;48.364;16.022;2022-11-20T14:09:10;47.00;;;25.17;;
7813;SDS011;3952;48.364;16.022;2022-11-20T14:11:46;41.33;;;24.00;;
7813;SDS011;3952;48.364;16.022;2022-11-20T14:14:15;34.67;;;20.47;;
7813;SDS011;3952;48.364;16.022;2022-11-20T14:16:44;34.23;;;20.97;;
7813;SDS011;3952;48.364;16.022;2022-11-20T14:19:23;33.10;;;21.67;;
7813;SDS011;3952;48.364;16.022;2022-11-20T14:22:06;40.13;;;21.33;;
7813;SDS011;3952;48.364;16.022;2022-11-20T14:24:36;39.00;;;21.50;;
7813;SDS011;3952;48.364;16.022;2022-11-20T14:27:04;47.07;;;24.43;;
7813;SDS011;3952;48.364;16.022;2022-11-20T14:29:37;42.00;;;22.77;;
7813;SDS011;3952;48.364;16.022;2022-11-20T14:32:05;42.30;;;23.23;;
7813;SDS011;3952;48.364;16.022;2022-11-20T14:34:36;41.63;;;23.50;;
7813;SDS011;3952;48.364;16.022;2022-11-20T14:37:09;47.10;;;25.63;;
7813;SDS011;3952;48.364;16.022;2022-11-20T14:39:40;44.10;;;24.47;;
7813;SDS011;3952;48.364;16.022;2022-11-20T14:42:17;41.97;;;24.23;;
7813;SDS011;3952;48.364;16.022;2022-11-20T14:44:46;45.03;;;25.67;;
7813;SDS011;3952;48.364;16.022;2022-11-20T14:47:23;41.17;;;24.60;;
7813;SDS011;3952;48.364;16.022;2022-11-20T14:49:52;39.33;;;23.67;;
7813;SDS011;3952;48.364;16.022;2022-11-20T14:52:21;41.43;;;23.03;;
7813;SDS011;3952;48.364;16.022;2022-11-20T14:54:50;34.97;;;21.30;;
7813;SDS011;3952;48.364;16.022;2022-11-20T14:57:24;41.73;;;24.97;;
7813;SDS011;3952;48.364;16.022;2022-11-20T15:00:03;40.00;;;24.90;;
7813;SDS011;3952;48.364;16.022;2022-11-20T15:02:44;36.80;;;23.50;;
7813;SDS011;3952;48.364;16.022;2022-11-20T15:05:13;35.77;;;22.40;;